Time;durP1;ratioP1;P1;durP2;ratioP2;P2;SDS_P1;SDS_P2;PMS_P1;PMS_P2;Temp;Humidity;BMP_temperature;BMP_pressure;BME280_temperature;BME280_humidity;BME280_pressure;Samples;Min_cycle;Max_cycle;Signal;HPM_P1;HPM_P2
2022/04/26 03:38:32;;;;;;;3.58;3.28;;;;;;;33.46;56.61;100785.03;5030728;28;66669;-34
2022/04/26 03:41:02;;;;;;;3.60;3.28;;;;;;;33.49;56.54;100780.97;5043992;28;69207;-34
2022/04/26 03:43:32;;;;;;;3.53;3.33;;;;;;;33.49;56.33;100778.25;5041653;28;65796;-34
2022/04/26 03:46:02;;;;;;;3.90;3.50;;;;;;;33.50;56.52;100777.22;5043969;28;69628;-34
2022/04/26 03:48:33;;;;;;;3.28;3.08;;;;;;;33.45;56.33;100755.34;5043972;28;65208;-35
2022/04/26 03:51:03;;;;;;;3.50;3.30;;;;;;;33.54;56.14;100771.09;5043176;28;69594;-35
2022/04/26 03:53:34;;;;;;;3.42;3.22;;;;;;;33.62;56.04;100783.47;5044035;28;65549;-34
2022/04/26 03:56:04;;;;;;;3.03;2.83;;;;;;;33.52;56.15;100756.06;5043372;28;70166;-36
2022/04/26 03:58:35;;;;;;;4.13;3.20;;;;;;;33.65;56.08;100777.53;5042485;28;66149;-32
2022/04/26 04:01:05;;;;;;;4.30;2.80;;;;;;;33.62;56.05;100761.72;5043031;28;70278;-35
2022/04/26 04:03:39;;;;;;;3.33;3.03;;;;;;;33.68;56.00;100768.91;5036725;28;66205;-37
2022/04/26 04:06:09;;;;;;;3.30;3.00;;;;;;;33.68;56.05;100771.63;5023222;28;69605;-35
2022/04/26 04:08:41;;;;;;;6.72;3.22;;;;;;;33.70;55.88;100765.94;5022388;28;66717;-35
2022/04/26 04:11:11;;;;;;;3.40;3.13;;;;;;;33.68;55.94;100760.72;5023375;28;69546;-35
2022/04/26 04:13:42;;;;;;;3.17;2.83;;;;;;;33.71;55.87;100763.00;5022119;28;65734;-35
2022/04/26 04:16:12;;;;;;;2.88;2.58;;;;;;;33.64;55.76;100745.97;5022928;28;70766;-34
2022/04/26 04:21:31;;;;;;;5.85;3.13;;;;;;;33.73;55.62;100758.13;5022349;28;70032;-34
2022/04/26 04:24:03;;;;;;;3.20;2.70;;;;;;;33.74;55.88;100750.78;5021061;28;65513;-34
2022/04/26 04:26:33;;;;;;;4.80;2.85;;;;;;;33.77;55.55;100759.31;5023172;28;70334;-34
2022/04/26 04:29:05;;;;;;;3.20;3.00;;;;;;;33.82;55.62;100755.81;5022743;28;66545;-35
2022/04/26 04:31:36;;;;;;;2.90;2.70;;;;;;;33.81;55.35;100749.56;5022060;28;70359;-34
2022/04/26 04:34:06;;;;;;;3.47;2.88;;;;;;;33.87;55.25;100746.94;5021457;28;65783;-35
2022/04/26 04:36:36;;;;;;;3.20;2.92;;;;;;;33.86;55.44;100748.03;5022749;28;69654;-35
2022/04/26 04:39:07;;;;;;;4.43;3.40;;;;;;;33.79;55.34;100726.38;5035235;28;65600;-34
2022/04/26 04:41:37;;;;;;;3.42;2.80;;;;;;;33.81;55.60;100732.41;5027053;28;69544;-34
2022/04/26 04:44:07;;;;;;;3.30;3.00;;;;;;;33.54;55.08;100685.94;5022979;28;66434;-34
2022/04/26 04:46:38;;;;;;;3.47;2.63;;;;;;;33.66;55.17;100705.78;5021973;28;70182;-33
2022/04/26 04:49:08;;;;;;;3.22;2.92;;;;;;;33.93;54.98;100729.63;5023406;28;65968;-34
2022/04/26 04:51:38;;;;;;;2.95;2.53;;;;;;;33.92;54.97;100726.09;5022654;28;70324;-35
2022/04/26 04:54:08;;;;;;;3.67;3.30;;;;;;;33.94;55.23;100720.41;5033608;28;66528;-33
2022/04/26 04:56:40;;;;;;;3.47;3.10;;;;;;;33.94;55.09;100721.25;5041530;28;69498;-34
2022/04/26 04:59:10;;;;;;;3.40;2.80;;;;;;;33.94;55.19;100720.41;5041887;28;66112;-34
2022/04/26 05:01:40;;;;;;;4.40;2.83;;;;;;;33.88;55.17;100699.59;5037460;28;69957;-34
2022/04/26 05:04:11;;;;;;;2.92;2.72;;;;;;;33.92;55.32;100700.78;5032828;28;64614;-35
2022/04/26 05:06:41;;;;;;;3.38;3.08;;;;;;;33.97;55.20;100698.97;5036851;28;69191;-34
2022/04/26 05:09:11;;;;;;;3.72;3.13;;;;;;;33.97;55.14;100692.72;5026211;28;66099;-35
2022/04/26 05:11:42;;;;;;;3.05;2.80;;;;;;;33.93;54.98;100676.03;5039506;28;69341;-35
2022/04/26 05:14:12;;;;;;;4.22;2.88;;;;;;;34.01;55.12;100688.41;5042218;28;65216;-35
2022/04/26 05:16:42;;;;;;;3.97;2.75;;;;;;;34.03;55.23;100680.84;5040073;28;69298;-35
2022/04/26 05:19:12;;;;;;;3.72;2.70;;;;;;;33.99;54.79;100668.78;5042445;28;65448;-34
2022/04/26 05:21:42;;;;;;;3.35;3.05;;;;;;;34.05;54.50;100662.41;5042560;28;69462;-36
2022/04/26 05:27:01;;;;;;;5.57;3.75;;;;;;;33.98;54.83;100645.38;5040235;28;69064;-35
2022/04/26 05:29:31;;;;;;;3.30;3.10;;;;;;;34.11;54.43;100650.53;5039018;28;65895;-34
2022/04/26 05:32:02;;;;;;;5.30;2.42;;;;;;;34.15;54.38;100646.22;5040376;28;69830;-34
2022/04/26 05:34:32;;;;;;;3.65;2.92;;;;;;;34.16;54.56;100642.44;5041764;28;66482;-34
2022/04/26 05:37:03;;;;;;;2.53;2.33;;;;;;;34.16;54.67;100625.28;5040365;28;70349;-34
2022/04/26 05:39:33;;;;;;;2.58;2.38;;;;;;;34.13;54.21;100626.59;5042056;28;66248;-35
2022/04/26 05:42:04;;;;;;;4.57;2.80;;;;;;;34.21;54.58;100623.47;5041535;28;70269;-35
2022/04/26 05:44:38;;;;;;;3.95;2.70;;;;;;;34.23;54.20;100620.47;5040365;28;67008;-34
2022/04/26 05:47:09;;;;;;;2.65;2.45;;;;;;;34.24;54.38;100606.63;5042055;28;69994;-34
2022/04/26 05:49:39;;;;;;;4.75;2.40;;;;;;;34.11;53.83;100585.19;5041199;28;66322;-35
2022/04/26 05:52:09;;;;;;;3.40;2.85;;;;;;;34.28;54.13;100592.50;5042141;28;69701;-34
2022/04/26 05:54:39;;;;;;;3.05;2.75;;;;;;;34.21;54.23;100577.19;5037913;28;65804;-35
2022/04/26 05:57:09;;;;;;;2.72;2.53;;;;;;;34.32;54.14;100585.47;5041368;28;70412;-35
2022/04/26 05:59:40;;;;;;;6.25;2.58;;;;;;;34.26;54.23;100566.34;5040352;28;66404;-34
2022/04/26 06:02:10;;;;;;;2.78;2.58;;;;;;;34.32;54.07;100571.88;5041400;28;69562;-36
2022/04/26 06:04:40;;;;;;;3.55;2.97;;;;;;;34.40;54.14;100571.44;5039273;28;64914;-34
2022/04/26 06:07:10;;;;;;;4.05;3.75;;;;;;;34.20;53.90;100545.56;5041936;28;70243;-39
2022/04/26 06:09:41;;;;;;;2.78;2.42;;;;;;;34.38;53.92;100555.34;5041813;28;65632;-35
2022/04/26 06:12:11;;;;;;;4.60;3.10;;;;;;;34.45;53.93;100552.44;5041276;28;70031;-33
2022/04/26 06:14:41;;;;;;;4.28;2.72;;;;;;;34.51;53.82;100551.41;5042005;28;66449;-35
2022/04/26 06:17:11;;;;;;;3.10;2.90;;;;;;;34.52;53.37;100542.19;5041926;28;69706;-35
2022/04/26 06:19:41;;;;;;;3.08;2.75;;;;;;;34.54;53.47;100534.56;5041116;28;66168;-34
2022/04/26 06:22:12;;;;;;;2.67;2.47;;;;;;;34.53;53.69;100522.03;5042042;28;70477;-35
2022/04/26 06:24:42;;;;;;;2.45;2.25;;;;;;;34.57;53.38;100512.31;5041190;28;66067;-35
2022/04/26 06:27:12;;;;;;;2.75;2.55;;;;;;;34.65;53.35;100517.31;5039123;28;69786;-34
2022/04/26 06:29:43;;;;;;;3.20;3.00;;;;;;;34.69;53.10;100515.72;5041636;28;65662;-34
2022/04/26 06:32:13;;;;;;;2.78;2.58;;;;;;;34.61;53.14;100493.56;5041958;28;69784;-35
2022/04/26 06:34:43;;;;;;;2.38;2.28;;;;;;;34.36;53.12;100442.31;5039060;28;66251;-35
2022/04/26 06:37:14;;;;;;;2.83;2.58;;;;;;;34.77;53.16;100500.84;5041617;28;70254;-35
2022/04/26 06:39:44;;;;;;;3.00;2.80;;;;;;;34.74;53.40;100500.50;5041786;28;65280;-35
2022/04/26 06:42:14;;;;;;;2.90;2.70;;;;;;;34.69;53.25;100476.78;5040743;28;70049;-35
2022/04/26 06:44:45;;;;;;;3.00;2.72;;;;;;;34.81;53.32;100491.06;5039911;28;65685;-35
2022/04/26 06:47:15;;;;;;;3.10;2.80;;;;;;;34.80;53.03;100483.13;5041052;28;70605;-35
2022/04/26 06:49:45;;;;;;;2.90;2.70;;;;;;;34.84;52.92;100476.09;5038691;28;65125;-35
2022/04/26 06:52:15;;;;;;;2.40;2.30;;;;;;;34.74;52.74;100454.19;5041233;28;70007;-34
2022/04/26 06:54:46;;;;;;;2.83;2.55;;;;;;;34.84;52.97;100467.94;5039884;28;66536;-35
2022/04/26 06:57:17;;;;;;;2.70;2.50;;;;;;;34.83;52.86;100467.09;5033859;28;70011;-35
2022/04/26 06:59:47;;;;;;;3.10;2.88;;;;;;;34.85;53.00;100453.22;5003219;28;65635;-35
2022/04/26 07:02:18;;;;;;;2.97;2.67;;;;;;;34.86;53.11;100438.53;5021303;28;69741;-35
2022/04/26 07:04:48;;;;;;;2.65;2.45;;;;;;;34.88;52.93;100436.34;5020318;28;65698;-34
2022/04/26 07:07:19;;;;;;;3.33;2.75;;;;;;;34.88;52.77;100437.19;5021432;28;70140;-34
2022/04/26 07:09:49;;;;;;;3.20;2.90;;;;;;;34.88;52.98;100429.00;5021086;28;66216;-35
2022/04/26 07:12:19;;;;;;;2.80;2.60;;;;;;;34.82;52.67;100404.69;5020251;28;69142;-34
2022/04/26 07:14:50;;;;;;;2.45;2.28;;;;;;;34.95;52.94;100406.97;5003578;28;66255;-35
2022/04/26 07:17:20;;;;;;;2.90;2.58;;;;;;;34.99;52.46;100416.28;5020719;28;69894;-35
2022/04/26 07:19:51;;;;;;;2.60;2.40;;;;;;;35.00;52.59;100407.03;5020237;28;65714;-35
2022/04/26 07:22:29;;;;;;;3.30;2.33;;;;;;;35.02;52.35;100404.88;5029862;28;70125;-34
2022/04/26 07:25:00;;;;;;;2.77;2.57;;;;;;;34.99;52.23;100393.66;5038890;28;67437;-34
2022/04/26 07:27:30;;;;;;;6.00;2.97;;;;;;;35.06;52.73;100397.03;5040334;28;70321;-34
2022/04/26 07:30:00;;;;;;;3.20;3.00;;;;;;;35.00;52.22;100381.69;5034028;28;66420;-34
2022/04/26 07:35:19;;;;;;;2.72;2.22;;;;;;;35.12;52.05;100385.88;5020239;28;65892;-34
2022/04/26 07:37:49;;;;;;;3.10;2.80;;;;;;;35.14;52.03;100375.56;5022230;28;69984;-34
2022/04/26 07:40:20;;;;;;;2.80;2.60;;;;;;;35.22;51.82;100370.72;5040488;28;66126;-35
2022/04/26 07:42:50;;;;;;;9.27;3.05;;;;;;;35.22;52.42;100371.53;5040385;28;69889;-36
2022/04/26 07:45:21;;;;;;;3.30;3.00;;;;;;;35.02;51.77;100320.38;5037542;28;66331;-34
2022/04/26 07:47:51;;;;;;;6.35;2.70;;;;;;;35.30;52.23;100356.56;5040322;28;70111;-34
2022/04/26 07:50:21;;;;;;;2.88;2.58;;;;;;;35.33;52.08;100358.78;5040636;28;66590;-35
2022/04/26 07:52:52;;;;;;;2.92;2.72;;;;;;;35.35;51.51;100338.34;5038946;28;70502;-35
2022/04/26 07:55:22;;;;;;;3.47;3.08;;;;;;;35.38;51.38;100328.78;5040587;28;65985;-35
2022/04/26 07:57:52;;;;;;;3.17;2.88;;;;;;;35.39;51.36;100327.72;5040216;28;69263;-34
2022/04/26 08:00:23;;;;;;;2.97;2.78;;;;;;;35.44;51.27;100325.03;5038512;28;66703;-35
2022/04/26 08:02:53;;;;;;;2.70;2.50;;;;;;;35.46;51.86;100311.94;5028577;28;69356;-35
2022/04/26 08:05:24;;;;;;;2.47;2.28;;;;;;;35.44;51.48;100308.66;5019929;28;66037;-35
2022/04/26 08:07:54;;;;;;;2.58;2.38;;;;;;;35.50;51.40;100306.78;5018344;28;70231;-35
2022/04/26 08:10:24;;;;;;;3.13;2.53;;;;;;;35.54;51.65;100297.78;5018857;28;66104;-36
2022/04/26 08:12:55;;;;;;;2.58;2.20;;;;;;;35.53;51.27;100290.69;5019560;28;69191;-35
2022/04/26 08:15:25;;;;;;;2.35;2.13;;;;;;;35.58;50.99;100309.03;5018903;28;66124;-36
2022/04/26 08:17:55;;;;;;;2.95;2.65;;;;;;;35.58;51.36;100290.75;5019952;28;70400;-35
2022/04/26 08:20:26;;;;;;;2.60;2.22;;;;;;;35.61;51.38;100294.84;5019982;28;65615;-34
2022/04/26 08:22:56;;;;;;;5.57;2.42;;;;;;;35.56;51.10;100284.72;5019596;28;70780;-34
2022/04/26 08:28:15;;;;;;;3.45;3.00;;;;;;;35.62;51.58;100292.94;5022198;28;70398;-35
2022/04/26 08:30:45;;;;;;;4.80;2.38;;;;;;;35.63;51.16;100305.50;5023572;28;65344;-35
2022/04/26 08:33:17;;;;;;;2.47;2.25;;;;;;;35.61;51.58;100307.66;5032460;28;69461;-35
2022/04/26 08:35:47;;;;;;;2.72;2.53;;;;;;;35.60;51.12;100300.56;5043167;28;65429;-35
2022/04/26 08:38:32;;;;;;;2.70;2.50;;;;;;;35.55;51.15;100299.44;5040648;28;70421;-36
2022/04/26 08:41:02;;;;;;;3.30;2.38;;;;;;;35.57;51.64;100305.47;5041397;28;66064;-35
2022/04/26 08:43:33;;;;;;;4.70;2.95;;;;;;;35.56;51.50;100295.66;5043590;28;70075;-35
2022/04/26 08:46:03;;;;;;;2.65;2.45;;;;;;;35.53;51.37;100298.88;5058361;28;66413;-35
2022/04/26 08:51:22;;;;;;;2.72;2.53;;;;;;;35.47;51.45;100305.41;5043076;28;66192;-35
2022/04/26 08:53:52;;;;;;;2.67;2.47;;;;;;;35.52;51.57;100308.16;5040599;28;69138;-35
2022/04/26 08:56:22;;;;;;;3.88;2.63;;;;;;;35.48;51.89;100306.22;5041212;28;66132;-34
2022/04/26 08:58:52;;;;;;;2.78;2.22;;;;;;;35.43;51.85;100307.00;5042563;28;69661;-35
2022/04/26 09:01:26;;;;;;;4.43;2.38;;;;;;;35.53;52.00;100317.16;5056815;28;65418;-35
2022/04/26 09:04:01;;;;;;;2.65;2.45;;;;;;;35.40;51.87;100306.72;5033706;28;70658;-34
2022/04/26 09:06:36;;;;;;;2.17;2.08;;;;;;;35.47;51.65;100329.94;5020739;28;66377;-34
2022/04/26 09:09:24;;;;;;;3.97;2.30;;;;;;;34.89;52.30;100230.91;5022921;28;69685;-34
2022/04/26 09:12:00;;;;;;;2.50;2.28;;;;;;;35.20;52.11;100277.44;5020536;28;65993;-34
2022/04/26 09:14:35;;;;;;;3.15;2.30;;;;;;;35.42;52.20;100327.19;5021738;28;70131;-35
2022/04/26 09:17:12;;;;;;;2.60;2.40;;;;;;;35.35;51.59;100319.25;5021342;28;65508;-34
2022/04/26 09:19:44;;;;;;;4.50;2.50;;;;;;;35.45;51.92;100348.47;5023067;28;69557;-34
2022/04/26 09:22:20;;;;;;;2.95;2.58;;;;;;;35.46;51.76;100347.38;5021088;28;65698;-35
2022/04/26 09:24:56;;;;;;;2.22;2.03;;;;;;;35.44;51.84;100354.19;5021424;28;69963;-35
2022/04/26 09:27:28;;;;;;;2.65;2.25;;;;;;;35.43;52.13;100355.28;5022687;28;66630;-35
2022/04/26 09:29:59;;;;;;;2.80;2.60;;;;;;;35.43;52.40;100347.09;5022159;28;69451;-34
2022/04/26 09:32:44;;;;;;;6.05;2.38;;;;;;;34.99;52.59;100301.81;5022431;28;64990;-35
2022/04/26 09:35:18;;;;;;;2.47;2.08;;;;;;;35.40;52.59;100361.25;5021086;28;69060;-35
2022/04/26 09:37:49;;;;;;;2.92;2.63;;;;;;;35.38;52.08;100347.88;5025497;28;66276;-35
2022/04/26 09:40:35;;;;;;;3.15;2.00;;;;;;;35.41;52.00;100335.63;5042912;28;69603;-35
2022/04/26 09:43:14;;;;;;;5.35;2.28;;;;;;;35.32;51.77;100332.56;5040440;28;66117;-35
2022/04/26 09:45:56;;;;;;;3.10;2.70;;;;;;;35.05;51.93;100305.38;5042349;28;70241;-34
2022/04/26 09:48:35;;;;;;;2.67;2.40;;;;;;;35.07;52.19;100312.25;5041448;28;65727;-34
2022/04/26 09:51:07;;;;;;;3.17;2.60;;;;;;;35.36;52.10;100363.72;5041452;28;70269;-35
2022/04/26 09:53:38;;;;;;;2.50;2.28;;;;;;;35.36;52.16;100369.16;5041019;28;66094;-36
2022/04/26 09:56:12;;;;;;;2.92;2.45;;;;;;;35.41;52.09;100380.09;5024412;28;69968;-34
2022/04/26 09:58:55;;;;;;;2.90;2.10;;;;;;;35.05;52.31;100317.13;5041991;28;66361;-34
2022/04/26 10:01:46;;;;;;;2.78;2.42;;;;;;;35.03;52.11;100330.19;5042124;28;70393;-34
2022/04/26 10:04:24;;;;;;;2.40;2.10;;;;;;;35.35;52.73;100390.16;5022930;28;66080;-37
2022/04/26 10:07:17;;;;;;;2.17;1.98;;;;;;;35.14;52.29;100361.91;5017827;28;69160;-34
2022/04/26 10:09:51;;;;;;;6.57;2.63;;;;;;;35.40;52.79;100373.00;5034114;28;66441;-37
2022/04/26 10:12:22;;;;;;;7.35;3.47;;;;;;;35.56;52.50;100382.94;5020728;28;69045;-37
2022/04/26 10:14:53;;;;;;;;;;;;;;;35.43;52.53;100398.91;5032132;28;43815;-37
2022/04/26 10:17:23;;;;;;;11.35;3.42;;;;;;;35.33;52.56;100405.97;5038320;28;70282;-37
2022/04/26 10:19:53;;;;;;;14.13;3.55;;;;;;;35.30;52.64;100411.09;5038672;28;66559;-38
2022/04/26 10:22:56;;;;;;;15.10;3.60;;;;;;;35.07;53.30;100399.47;5032243;28;70114;-36
2022/04/26 10:25:27;;;;;;;14.25;3.50;;;;;;;35.08;54.16;100405.78;5028484;28;65553;-38
2022/04/26 10:28:16;;;;;;;4.88;3.28;;;;;;;34.89;55.23;100394.41;5031329;28;69936;-36
2022/04/26 10:30:55;;;;;;;5.80;3.45;;;;;;;34.46;55.19;100331.63;5030126;28;65454;-36
2022/04/26 10:33:40;;;;;;;4.82;3.50;;;;;;;34.45;55.61;100340.03;5029733;28;69293;-37
2022/04/26 10:36:38;;;;;;;9.75;5.07;;;;;;;34.84;55.73;100407.97;5031163;28;66884;-37
2022/04/26 10:39:08;;;;;;;7.40;5.82;;;;;;;34.95;55.54;100415.16;5032037;28;69470;-37
2022/04/26 10:41:43;;;;;;;18.05;6.68;;;;;;;34.86;56.06;100414.81;5027969;28;66256;-37
2022/04/26 10:44:16;;;;;;;8.23;6.30;;;;;;;34.88;56.13;100414.53;5019324;28;70085;-37
2022/04/26 10:46:55;;;;;;;9.45;5.22;;;;;;;34.83;56.75;100422.69;5030824;28;65408;-35
2022/04/26 10:49:43;;;;;;;6.68;4.60;;;;;;;34.67;57.62;100414.34;5023998;28;70201;-35
2022/04/26 10:52:25;;;;;;;5.70;4.63;;;;;;;34.66;57.34;100411.91;5031953;28;65484;-36
2022/04/26 10:57:27;;;;;;;12.13;5.85;;;;;;;34.41;57.37;100366.16;5037499;28;66569;-37
2022/04/26 11:00:09;;;;;;;10.27;4.50;;;;;;;34.24;57.80;100358.88;5038010;28;70002;-35
2022/04/26 11:02:40;;;;;;;;;;;;;;;34.34;58.52;100431.69;5028431;28;65739;-35
2022/04/26 11:05:16;;;;;;;5.60;4.50;;;;;;;34.18;58.23;100368.06;5026356;28;70558;-34
2022/04/26 11:07:48;;;;;;;4.68;4.13;;;;;;;33.90;57.74;100322.00;5023481;28;66574;-36
2022/04/26 11:10:21;;;;;;;13.18;5.15;;;;;;;34.57;58.09;100446.94;5027999;28;69764;-34
2022/04/26 11:12:52;;;;;;;8.07;5.90;;;;;;;34.58;58.46;100440.44;5030719;28;66201;-35
2022/04/26 11:15:24;;;;;;;14.03;6.20;;;;;;;34.54;59.12;100444.69;5023800;28;69653;-36
2022/04/26 11:17:55;;;;;;;10.07;6.13;;;;;;;34.56;59.53;100439.84;5021630;28;66975;-35
2022/04/26 11:20:26;;;;;;;8.30;5.90;;;;;;;34.55;59.33;100430.00;5023809;28;70160;-35
2022/04/26 11:27:59;;;;;;;9.80;6.05;;;;;;;34.36;59.41;100412.38;5031637;28;65720;-36
2022/04/26 11:28:36;;;;;;;9.55;4.78;;;;;;;34.47;59.38;100447.63;5029080;28;65685;-35
2022/04/26 11:31:06;;;;;;;7.80;5.78;;;;;;;34.47;59.78;100449.53;5027994;28;69776;-35
2022/04/26 11:33:49;;;;;;;18.63;6.75;;;;;;;34.47;59.97;100463.16;5009478;28;66210;-35
2022/04/26 11:36:19;;;;;;;12.75;6.60;;;;;;;34.17;59.34;100420.84;5023923;28;69750;-35
2022/04/26 11:38:57;;;;;;;12.35;7.15;;;;;;;34.40;58.51;100476.94;5027825;28;66091;-37
2022/04/26 11:41:27;;;;;;;14.82;6.32;;;;;;;34.32;58.76;100485.56;5023549;28;70075;-38
2022/04/26 11:44:15;;;;;;;11.90;5.40;;;;;;;34.18;59.41;100493.28;5024509;28;65723;-35
2022/04/26 11:46:59;;;;;;;5.93;4.65;;;;;;;34.24;59.13;100507.78;5041034;28;69148;-36
2022/04/26 11:49:41;;;;;;;5.20;4.70;;;;;;;34.24;59.41;100514.06;5015877;28;65164;-35
2022/04/26 11:52:12;;;;;;;15.60;5.28;;;;;;;34.25;58.77;100521.16;5032224;28;69200;-36
2022/04/26 11:54:42;;;;;;;8.40;5.25;;;;;;;34.24;59.19;100516.78;5023835;28;66561;-37
2022/04/26 11:57:13;;;;;;;16.95;4.88;;;;;;;34.18;59.45;100523.22;5020149;28;70287;-37
2022/04/26 11:59:43;;;;;;;7.88;4.90;;;;;;;34.08;59.62;100514.94;5025294;28;65172;-36
2022/04/26 12:02:14;;;;;;;13.18;4.53;;;;;;;34.09;59.75;100522.00;5031168;28;70141;-34
2022/04/26 12:04:45;;;;;;;7.38;5.13;;;;;;;34.05;60.05;100520.06;5030333;28;66660;-34
2022/04/26 12:07:17;;;;;;;14.50;4.45;;;;;;;33.98;60.45;100520.19;5028487;28;69567;-38
2022/04/26 12:09:47;;;;;;;7.13;5.25;;;;;;;33.99;60.16;100516.38;5031010;28;66632;-36
2022/04/26 12:12:18;;;;;;;12.88;6.05;;;;;;;33.90;60.23;100507.00;5034299;28;69779;-37
2022/04/26 12:14:50;;;;;;;9.52;5.60;;;;;;;33.90;60.77;100524.16;5033522;28;66573;-35
2022/04/26 12:17:29;;;;;;;6.30;5.45;;;;;;;33.86;60.59;100506.69;5039612;28;69938;-38
2022/04/26 12:20:09;;;;;;;15.77;6.18;;;;;;;33.87;61.02;100524.66;5026681;28;65749;-36
2022/04/26 12:22:41;;;;;;;9.65;5.82;;;;;;;33.94;60.43;100529.94;5039017;28;70477;-34
2022/04/26 12:25:16;;;;;;;12.50;5.50;;;;;;;33.94;61.09;100546.25;5034659;28;67225;-36
2022/04/26 12:28:01;;;;;;;5.43;4.82;;;;;;;33.66;60.92;100515.38;5024713;28;68482;-40
2022/04/26 12:30:33;;;;;;;6.25;4.90;;;;;;;33.95;61.01;100550.63;5030134;28;65504;-37
2022/04/26 12:33:05;;;;;;;9.82;5.28;;;;;;;33.57;61.61;100503.25;5033233;28;69774;-35
2022/04/26 12:35:36;;;;;;;8.20;4.82;;;;;;;33.78;61.72;100537.84;5031014;28;65718;-35
2022/04/26 12:38:08;;;;;;;6.80;4.57;;;;;;;33.85;62.22;100561.34;5036980;28;70447;-36
2022/04/26 12:40:39;;;;;;;8.48;4.40;;;;;;;33.87;62.13;100567.38;5041261;28;65442;-36
2022/04/26 12:43:29;;;;;;;8.55;4.28;;;;;;;33.85;62.26;100575.78;5040041;28;70053;-36
2022/04/26 12:46:02;;;;;;;9.35;4.22;;;;;;;33.41;61.77;100514.94;5037796;28;65643;-37
2022/04/26 12:51:28;;;;;;;7.20;4.47;;;;;;;33.87;62.20;100597.28;5025813;28;66273;-37
2022/04/26 12:54:11;;;;;;;7.68;4.60;;;;;;;33.68;60.63;100602.97;5031913;28;69527;-35
2022/04/26 12:56:59;;;;;;;8.60;4.50;;;;;;;33.05;59.20;100544.19;5034658;28;66068;-36
2022/04/26 12:59:36;;;;;;;4.60;3.92;;;;;;;33.22;57.95;100583.09;5025317;28;70097;-34
2022/04/26 13:02:06;;;;;;;6.18;4.18;;;;;;;33.05;57.05;100583.06;5021632;28;65998;-35
2022/04/26 13:04:37;;;;;;;5.93;3.30;;;;;;;32.82;57.23;100583.94;5021751;28;69941;-38
2022/04/26 13:07:09;;;;;;;5.57;4.22;;;;;;;32.75;56.84;100588.66;5003939;28;65806;-38
2022/04/26 13:09:40;;;;;;;7.45;4.22;;;;;;;32.75;56.29;100594.09;5030887;28;70485;-36
2022/04/26 13:12:10;;;;;;;6.88;4.13;;;;;;;32.60;55.40;100580.22;5021931;28;64848;-35
2022/04/26 13:14:40;;;;;;;5.13;4.60;;;;;;;32.55;54.74;100588.25;5021939;28;70446;-41
2022/04/26 13:17:20;;;;;;;5.68;4.47;;;;;;;32.63;54.17;100612.31;5020845;28;66303;-39
2022/04/26 13:19:50;;;;;;;4.43;4.07;;;;;;;32.62;53.98;100622.34;5034835;28;69979;-36
2022/04/26 13:22:22;;;;;;;7.60;4.50;;;;;;;32.60;53.09;100629.09;5034947;28;65526;-34
2022/04/26 13:24:52;;;;;;;9.10;4.15;;;;;;;32.43;52.88;100616.22;5042045;28;69568;-35
2022/04/26 13:27:23;;;;;;;8.77;4.35;;;;;;;32.56;52.93;100636.06;5040623;28;65506;-34
2022/04/26 13:29:53;;;;;;;4.32;4.03;;;;;;;32.46;51.60;100623.91;5039513;28;69729;-35
2022/04/26 13:32:24;;;;;;;6.07;3.95;;;;;;;32.40;51.81;100619.41;5042583;28;65369;-35
2022/04/26 13:34:54;;;;;;;5.07;4.57;;;;;;;32.44;51.16;100630.59;5041253;28;70355;-35
2022/04/26 13:37:31;;;;;;;5.05;4.65;;;;;;;32.39;50.28;100639.44;5041805;28;65899;-35
2022/04/26 13:40:03;;;;;;;15.48;4.43;;;;;;;32.37;51.17;100647.00;5042214;28;70887;-38
2022/04/26 13:42:35;;;;;;;13.80;5.82;;;;;;;32.29;50.79;100658.22;5040342;28;65462;-37
2022/04/26 13:45:09;;;;;;;5.55;4.50;;;;;;;32.09;50.12;100644.16;5034965;28;70536;-38
2022/04/26 13:47:40;;;;;;;4.95;4.25;;;;;;;32.33;49.67;100688.44;5031319;28;65431;-37
2022/04/26 13:50:12;;;;;;;5.63;5.10;;;;;;;32.18;49.66;100672.59;5029150;28;70014;-38
2022/04/26 13:52:44;;;;;;;5.45;4.57;;;;;;;32.26;49.03;100693.97;5019337;28;66189;-38
2022/04/26 13:55:17;;;;;;;8.98;5.10;;;;;;;32.22;49.17;100692.78;5022044;28;69873;-37
2022/04/26 13:57:47;;;;;;;5.57;4.70;;;;;;;32.25;50.39;100692.31;5023467;28;66003;-35
2022/04/26 14:00:18;;;;;;;11.32;4.70;;;;;;;31.95;50.45;100651.69;5031013;28;70041;-38
2022/04/26 14:02:48;;;;;;;7.22;5.15;;;;;;;32.19;50.08;100687.84;5034558;28;65251;-35
2022/04/26 14:05:24;;;;;;;8.98;5.15;;;;;;;32.13;49.30;100683.34;5036847;28;70019;-35
2022/04/26 14:07:54;;;;;;;9.63;4.82;;;;;;;32.11;49.33;100674.59;5036230;28;66231;-36
2022/04/26 14:10:25;;;;;;;7.78;4.80;;;;;;;32.09;49.28;100676.72;5017396;28;70002;-35
2022/04/26 14:12:57;;;;;;;9.02;4.93;;;;;;;31.91;48.83;100662.19;5035746;28;65897;-35
2022/04/26 14:23:54;;;;;;;8.73;4.45;;;;;;;31.92;48.70;100750.63;5029069;28;66700;-36
2022/04/26 14:26:25;;;;;;;7.30;4.47;;;;;;;31.88;48.07;100749.41;5026296;28;70543;-35
2022/04/26 14:28:55;;;;;;;7.72;4.50;;;;;;;31.86;47.40;100759.66;5028176;28;65717;-36
2022/04/26 14:31:25;;;;;;;7.20;4.70;;;;;;;31.82;47.54;100734.06;5030392;28;70149;-35
2022/04/26 14:33:55;;;;;;;4.40;4.00;;;;;;;31.71;46.64;100724.00;5043046;28;66930;-37
2022/04/26 14:36:26;;;;;;;6.25;4.20;;;;;;;31.73;46.11;100735.44;5027464;28;69882;-36
2022/04/26 14:39:16;;;;;;;5.03;4.22;;;;;;;31.71;46.26;100746.53;5012738;28;66201;-36
2022/04/26 14:41:46;;;;;;;10.45;3.90;;;;;;;31.70;45.71;100760.31;5036762;28;70649;-35
2022/04/26 14:44:17;;;;;;;4.47;4.15;;;;;;;31.68;45.85;100756.97;5027259;28;65644;-35
2022/04/26 14:46:47;;;;;;;4.53;4.22;;;;;;;31.66;45.23;100756.41;5028838;28;70698;-36
2022/04/26 14:49:17;;;;;;;5.80;4.40;;;;;;;31.61;45.65;100755.19;5033780;28;64829;-36
2022/04/26 14:51:47;;;;;;;4.43;4.00;;;;;;;31.63;46.48;100746.03;5035024;28;70161;-36
2022/04/26 14:54:18;;;;;;;7.32;4.03;;;;;;;31.58;46.67;100763.78;5028252;28;65441;-35
2022/04/26 14:56:48;;;;;;;6.95;4.18;;;;;;;31.56;46.86;100770.50;5034487;28;70306;-36
2022/04/26 14:59:20;;;;;;;4.63;4.22;;;;;;;31.58;46.49;100774.63;5029212;28;66244;-35
2022/04/26 15:01:50;;;;;;;11.18;4.45;;;;;;;31.55;46.57;100766.94;5026544;28;69522;-35
2022/04/26 15:04:23;;;;;;;5.07;4.57;;;;;;;31.54;46.17;100762.59;5030312;28;65810;-36
2022/04/26 15:06:53;;;;;;;6.43;4.00;;;;;;;31.48;45.53;100768.94;5024986;28;70284;-37
2022/04/26 15:17:52;;;;;;;5.90;4.38;;;;;;;31.43;45.90;100808.63;5029762;28;70452;-35
2022/04/26 15:20:24;;;;;;;4.22;3.90;;;;;;;31.42;45.60;100813.19;5031202;28;65874;-33
2022/04/26 15:22:55;;;;;;;4.60;4.20;;;;;;;31.36;45.10;100803.25;5028597;28;70033;-35
2022/04/26 15:25:25;;;;;;;8.85;3.80;;;;;;;31.35;45.08;100817.84;5025838;28;65443;-36
2022/04/26 15:27:55;;;;;;;3.80;3.50;;;;;;;31.27;44.61;100804.59;5035965;28;69245;-34
2022/04/26 15:30:25;;;;;;;3.67;3.38;;;;;;;31.24;44.06;100794.19;5025980;28;66237;-35
2022/04/26 15:32:55;;;;;;;3.45;3.20;;;;;;;31.27;44.52;100810.00;5030868;28;70362;-35
2022/04/26 15:35:26;;;;;;;4.03;3.72;;;;;;;31.22;43.65;100816.09;5035929;28;66010;-33
2022/04/26 15:37:56;;;;;;;4.75;3.08;;;;;;;31.21;43.77;100810.91;5036637;28;69170;-35
2022/04/26 15:40:26;;;;;;;5.70;3.97;;;;;;;31.12;43.43;100792.22;5030302;28;66377;-33
2022/04/26 15:42:56;;;;;;;3.53;3.22;;;;;;;31.08;44.16;100774.75;5038683;28;70193;-34
2022/04/26 15:45:28;;;;;;;5.25;2.97;;;;;;;31.08;43.71;100782.06;5030612;28;65675;-35
2022/04/26 15:47:58;;;;;;;3.25;2.95;;;;;;;31.04;43.94;100784.41;5030462;28;69908;-35
2022/04/26 15:50:29;;;;;;;4.22;2.88;;;;;;;30.99;43.70;100776.09;5030447;28;65491;-36
2022/04/26 15:52:59;;;;;;;7.00;3.10;;;;;;;31.03;43.57;100777.31;5034056;28;68335;-38
2022/04/26 15:55:35;;;;;;;3.30;3.00;;;;;;;30.94;43.59;100754.28;5040352;28;66663;-35
2022/04/26 15:58:05;;;;;;;3.05;2.75;;;;;;;30.97;44.60;100744.88;5035613;28;69656;-34
2022/04/26 16:00:37;;;;;;;2.75;2.55;;;;;;;30.56;44.35;100679.41;5050735;28;66348;-34
2022/04/26 16:03:07;;;;;;;4.50;2.65;;;;;;;30.87;44.40;100739.94;5031292;28;70014;-34
2022/04/26 16:05:40;;;;;;;4.68;3.13;;;;;;;30.97;44.46;100756.53;5030669;28;66123;-33